Time;durP1;ratioP1;P1;durP2;ratioP2;P2;SDS_P1;SDS_P2;PMS_P1;PMS_P2;Temp;Humidity;BMP_temperature;BMP_pressure;BME280_temperature;BME280_humidity;BME280_pressure;Samples;Min_cycle;Max_cycle;Signal;HPM_P1;HPM_P2
2022/11/22 00:02:21;;;;;;;32.40;14.38;;;;;;;;;;5049224;28;20045;-68
2022/11/22 00:04:47;;;;;;;39.72;15.48;;;;;;;;;;5049443;28;20108;-70
2022/11/22 00:07:12;;;;;;;37.03;15.77;;;;;;;;;;5048904;28;20025;-66
2022/11/22 00:09:37;;;;;;;36.53;15.40;;;;;;;;;;5048855;28;20025;-68
2022/11/22 00:12:02;;;;;;;39.20;14.50;;;;;;;;;;5049532;28;20028;-67
2022/11/22 00:14:28;;;;;;;41.47;15.32;;;;;;;;;;5046467;28;20036;-69
2022/11/22 00:16:53;;;;;;;31.92;14.13;;;;;;;;;;5049163;28;20021;-66
2022/11/22 00:19:18;;;;;;;33.08;14.15;;;;;;;;;;5049219;28;20025;-67
2022/11/22 00:21:43;;;;;;;39.00;15.30;;;;;;;;;;5048941;28;20111;-64
2022/11/22 00:24:11;;;;;;;31.02;12.38;;;;;;;;;;5049166;28;20104;-67
2022/11/22 00:26:36;;;;;;;32.97;13.63;;;;;;;;;;5048781;28;20068;-67
2022/11/22 00:29:02;;;;;;;39.08;16.17;;;;;;;;;;5049236;28;20479;-64
2022/11/22 00:31:27;;;;;;;32.05;15.13;;;;;;;;;;5049174;28;20024;-68
2022/11/22 00:33:52;;;;;;;31.40;13.63;;;;;;;;;;5049436;28;20132;-67
2022/11/22 00:36:17;;;;;;;35.75;14.57;;;;;;;;;;5049033;28;20483;-68
2022/11/22 00:38:42;;;;;;;31.08;13.23;;;;;;;;;;5049409;28;20053;-65
2022/11/22 00:41:08;;;;;;;33.25;14.48;;;;;;;;;;5049272;28;20025;-67
2022/11/22 00:43:33;;;;;;;32.20;14.35;;;;;;;;;;5049381;28;20546;-66
2022/11/22 00:45:59;;;;;;;32.85;14.77;;;;;;;;;;5049289;28;20025;-69
2022/11/22 00:48:24;;;;;;;30.83;13.95;;;;;;;;;;5049341;28;20021;-68
2022/11/22 00:50:49;;;;;;;34.25;14.32;;;;;;;;;;5049837;28;20387;-67
2022/11/22 00:53:15;;;;;;;32.33;14.02;;;;;;;;;;5051131;28;20120;-67
2022/11/22 00:55:40;;;;;;;38.70;14.63;;;;;;;;;;5052523;28;20029;-65
2022/11/22 00:58:05;;;;;;;42.92;16.40;;;;;;;;;;5052601;28;20013;-69
2022/11/22 01:00:30;;;;;;;35.85;16.08;;;;;;;;;;5052342;28;20041;-67
2022/11/22 01:02:55;;;;;;;43.67;14.90;;;;;;;;;;5052479;28;20016;-68
2022/11/22 01:05:21;;;;;;;31.13;14.07;;;;;;;;;;5053034;28;20017;-67
2022/11/22 01:07:46;;;;;;;29.45;12.80;;;;;;;;;;5052882;28;20066;-67
2022/11/22 01:10:11;;;;;;;34.00;14.75;;;;;;;;;;5049238;28;20509;-65
2022/11/22 01:12:36;;;;;;;32.35;13.73;;;;;;;;;;5053122;28;20398;-68
2022/11/22 01:15:02;;;;;;;26.50;12.95;;;;;;;;;;5047790;28;20489;-66
2022/11/22 01:17:27;;;;;;;37.20;14.25;;;;;;;;;;5052820;28;20025;-68
2022/11/22 01:19:52;;;;;;;32.33;14.95;;;;;;;;;;5053368;28;20024;-66
2022/11/22 01:22:18;;;;;;;29.92;12.15;;;;;;;;;;5052746;28;20025;-67
2022/11/22 01:24:43;;;;;;;31.58;13.18;;;;;;;;;;5052166;28;20040;-65
2022/11/22 01:27:08;;;;;;;27.23;12.57;;;;;;;;;;5051939;28;20013;-65
2022/11/22 01:29:33;;;;;;;25.40;10.60;;;;;;;;;;5052169;28;20017;-67
2022/11/22 01:31:59;;;;;;;31.48;13.73;;;;;;;;;;5052141;28;20052;-67
2022/11/22 01:34:24;;;;;;;33.28;13.77;;;;;;;;;;5051930;28;20070;-67
2022/11/22 01:36:50;;;;;;;28.70;11.77;;;;;;;;;;5051568;28;20075;-67
2022/11/22 01:39:15;;;;;;;31.60;13.95;;;;;;;;;;5051550;28;20047;-67
2022/11/22 01:41:40;;;;;;;29.98;12.75;;;;;;;;;;5051372;28;20013;-67
2022/11/22 01:44:22;;;;;;;32.85;13.77;;;;;;;;;;5051585;28;20021;-68
2022/11/22 01:46:50;;;;;;;25.67;11.55;;;;;;;;;;5051924;28;20021;-67
2022/11/22 01:49:26;;;;;;;34.15;13.88;;;;;;;;;;5051930;28;20075;-67
2022/11/22 01:51:53;;;;;;;33.90;14.20;;;;;;;;;;5051815;28;20079;-65
2022/11/22 01:54:21;;;;;;;29.10;13.85;;;;;;;;;;5051421;28;20033;-65
2022/11/22 01:56:49;;;;;;;32.63;14.63;;;;;;;;;;5051548;28;20049;-67
2022/11/22 01:59:15;;;;;;;26.02;12.35;;;;;;;;;;5051289;28;20027;-66
2022/11/22 02:01:41;;;;;;;28.58;12.93;;;;;;;;;;5050929;28;20032;-66
2022/11/22 02:04:08;;;;;;;34.25;14.32;;;;;;;;;;5050182;28;20014;-67
2022/11/22 02:06:41;;;;;;;29.90;15.13;;;;;;;;;;5051073;28;20391;-65
2022/11/22 02:09:08;;;;;;;36.13;14.65;;;;;;;;;;5050318;28;20024;-66
2022/11/22 02:11:35;;;;;;;31.38;13.73;;;;;;;;;;5050943;28;20032;-66
2022/11/22 02:14:01;;;;;;;34.80;15.23;;;;;;;;;;5043339;28;20483;-68
2022/11/22 02:16:26;;;;;;;29.23;13.65;;;;;;;;;;5044929;28;20112;-67
2022/11/22 02:18:51;;;;;;;28.40;12.77;;;;;;;;;;5051323;28;20021;-66
2022/11/22 02:21:17;;;;;;;37.70;13.70;;;;;;;;;;5049698;28;20074;-68
2022/11/22 02:24:06;;;;;;;33.13;13.85;;;;;;;;;;5051122;28;20387;-64
2022/11/22 02:26:31;;;;;;;28.30;13.23;;;;;;;;;;5050633;28;20040;-68
2022/11/22 02:28:59;;;;;;;36.38;14.40;;;;;;;;;;5050229;28;20142;-65
2022/11/22 02:31:38;;;;;;;31.67;14.35;;;;;;;;;;5050981;28;20043;-65
2022/11/22 02:34:04;;;;;;;35.22;13.38;;;;;;;;;;5051462;28;20032;-67
2022/11/22 02:36:32;;;;;;;32.55;12.63;;;;;;;;;;5050980;28;20017;-66
2022/11/22 02:38:57;;;;;;;32.43;12.67;;;;;;;;;;5050991;28;20079;-65
2022/11/22 02:41:22;;;;;;;40.03;13.70;;;;;;;;;;5051124;28;20063;-66
2022/11/22 02:43:48;;;;;;;35.05;13.93;;;;;;;;;;5051180;28;20381;-66
2022/11/22 02:46:20;;;;;;;31.45;13.27;;;;;;;;;;5050919;28;20207;-65
2022/11/22 02:48:45;;;;;;;36.50;13.43;;;;;;;;;;5051738;28;20049;-67
2022/11/22 02:51:15;;;;;;;35.95;12.48;;;;;;;;;;5051162;28;20052;-66
2022/11/22 02:53:41;;;;;;;33.70;13.68;;;;;;;;;;5049743;28;20114;-65
2022/11/22 02:56:06;;;;;;;34.85;14.38;;;;;;;;;;5051724;28;20052;-65
2022/11/22 02:58:31;;;;;;;32.63;13.02;;;;;;;;;;5050977;28;20040;-67
2022/11/22 03:00:56;;;;;;;32.33;13.32;;;;;;;;;;5051053;28;20031;-67
2022/11/22 03:03:22;;;;;;;32.13;12.50;;;;;;;;;;5050834;28;20017;-68
2022/11/22 03:05:47;;;;;;;27.02;11.93;;;;;;;;;;5050262;28;20029;-68
2022/11/22 03:08:12;;;;;;;29.45;12.57;;;;;;;;;;5048143;28;20029;-68
2022/11/22 03:10:37;;;;;;;27.95;11.63;;;;;;;;;;5049819;28;20394;-65
2022/11/22 03:13:02;;;;;;;32.53;13.85;;;;;;;;;;5050158;28;20459;-68
2022/11/22 03:15:28;;;;;;;29.42;12.73;;;;;;;;;;5036471;28;20036;-65
2022/11/22 03:17:57;;;;;;;31.73;13.50;;;;;;;;;;5050141;28;20504;-68
2022/11/22 03:20:22;;;;;;;36.25;13.20;;;;;;;;;;5049983;28;20025;-67
2022/11/22 03:22:48;;;;;;;28.77;11.82;;;;;;;;;;5050435;28;20482;-65
2022/11/22 03:25:13;;;;;;;29.55;12.13;;;;;;;;;;5050055;28;20028;-66
2022/11/22 03:27:38;;;;;;;31.23;12.65;;;;;;;;;;5050526;28;20021;-67
2022/11/22 03:30:04;;;;;;;32.72;12.50;;;;;;;;;;5049904;28;20028;-66
2022/11/22 03:32:29;;;;;;;31.23;13.52;;;;;;;;;;5050065;28;20021;-63
2022/11/22 03:34:54;;;;;;;29.85;12.60;;;;;;;;;;5049521;28;20052;-66
2022/11/22 03:37:19;;;;;;;26.98;12.00;;;;;;;;;;5049269;28;20025;-64
2022/11/22 03:39:45;;;;;;;29.15;12.32;;;;;;;;;;5049459;28;20017;-67
2022/11/22 03:42:10;;;;;;;29.65;12.73;;;;;;;;;;5049418;28;20029;-66
2022/11/22 03:44:35;;;;;;;28.15;12.05;;;;;;;;;;5049318;28;20506;-67
2022/11/22 03:47:00;;;;;;;31.60;12.55;;;;;;;;;;5049219;28;20112;-69
2022/11/22 03:49:25;;;;;;;24.55;12.27;;;;;;;;;;5049268;28;20116;-67
2022/11/22 03:51:51;;;;;;;29.58;12.60;;;;;;;;;;5049113;28;20035;-67
2022/11/22 03:54:16;;;;;;;31.52;11.45;;;;;;;;;;5048992;28;20048;-66
2022/11/22 03:56:41;;;;;;;28.90;12.30;;;;;;;;;;5049009;28;20016;-67
2022/11/22 03:59:06;;;;;;;23.92;11.13;;;;;;;;;;5049214;28;20123;-66
2022/11/22 04:01:32;;;;;;;29.52;10.40;;;;;;;;;;5049378;28;20021;-66
2022/11/22 04:03:57;;;;;;;29.77;12.25;;;;;;;;;;5049800;28;20021;-65
2022/11/22 04:06:22;;;;;;;35.30;13.02;;;;;;;;;;5049163;28;20017;-67
2022/11/22 04:08:47;;;;;;;31.15;12.80;;;;;;;;;;5048957;28;20013;-68
2022/11/22 04:11:13;;;;;;;23.65;11.65;;;;;;;;;;5049067;28;20017;-67
2022/11/22 04:16:22;;;;;;;28.38;12.48;;;;;;;;;;5042590;28;20024;-67
2022/11/22 04:18:47;;;;;;;26.73;11.75;;;;;;;;;;5049161;28;20017;-64
2022/11/22 04:26:40;;;;;;;32.70;12.75;;;;;;;;;;5049278;28;20039;-69
2022/11/22 04:29:05;;;;;;;41.88;14.95;;;;;;;;;;5053296;28;20020;-67
2022/11/22 04:34:15;;;;;;;38.35;13.23;;;;;;;;;;5053031;28;20071;-65
2022/11/22 04:36:40;;;;;;;32.75;13.05;;;;;;;;;;5052914;28;20025;-67
2022/11/22 04:39:05;;;;;;;28.42;13.43;;;;;;;;;;5052708;28;20024;-65
2022/11/22 04:41:30;;;;;;;30.65;13.52;;;;;;;;;;5052791;28;20237;-67
2022/11/22 04:46:40;;;;;;;32.13;13.85;;;;;;;;;;5053341;28;20028;-66
2022/11/22 04:49:05;;;;;;;33.47;14.23;;;;;;;;;;5053595;28;20016;-66
2022/11/22 04:54:14;;;;;;;33.03;13.75;;;;;;;;;;5064367;22;20083;-66
2022/11/22 04:56:39;;;;;;;31.67;13.90;;;;;;;;;;5049648;28;20630;-65
2022/11/22 04:59:04;;;;;;;28.23;13.65;;;;;;;;;;5050905;28;20023;-66
2022/11/22 05:01:30;;;;;;;35.25;13.85;;;;;;;;;;5050579;28;20032;-69
2022/11/22 05:03:55;;;;;;;26.65;11.82;;;;;;;;;;5050693;28;20025;-70
2022/11/22 05:06:20;;;;;;;36.28;13.88;;;;;;;;;;5050240;28;20104;-68
2022/11/22 05:08:45;;;;;;;35.78;13.90;;;;;;;;;;5048413;28;20471;-68
2022/11/22 05:11:11;;;;;;;29.20;13.23;;;;;;;;;;5050308;28;20031;-67
2022/11/22 05:13:37;;;;;;;34.88;13.57;;;;;;;;;;5047032;28;20032;-67
2022/11/22 05:16:03;;;;;;;31.08;13.27;;;;;;;;;;5049300;28;20064;-68
2022/11/22 05:18:29;;;;;;;31.58;14.13;;;;;;;;;;5050161;28;20024;-67
2022/11/22 05:20:54;;;;;;;32.20;14.48;;;;;;;;;;5050667;28;20028;-69
2022/11/22 05:26:04;;;;;;;32.05;13.45;;;;;;;;;;5040522;28;20024;-68
2022/11/22 05:28:30;;;;;;;33.30;13.40;;;;;;;;;;5050811;28;20104;-67
2022/11/22 05:30:55;;;;;;;33.22;13.93;;;;;;;;;;5050659;28;20083;-69
2022/11/22 05:33:21;;;;;;;30.52;12.18;;;;;;;;;;5049721;28;20363;-67
2022/11/22 05:35:46;;;;;;;29.50;12.95;;;;;;;;;;5050954;28;20024;-68
2022/11/22 05:38:11;;;;;;;26.92;12.75;;;;;;;;;;5050655;28;20045;-68
2022/11/22 05:40:36;;;;;;;33.00;11.68;;;;;;;;;;5048988;28;20107;-67
2022/11/22 05:43:01;;;;;;;30.85;12.23;;;;;;;;;;5049366;28;20074;-68
2022/11/22 05:45:27;;;;;;;26.85;12.02;;;;;;;;;;5049325;28;20144;-69
2022/11/22 05:47:52;;;;;;;38.38;12.65;;;;;;;;;;5049980;28;20064;-66
2022/11/22 05:50:17;;;;;;;30.55;12.85;;;;;;;;;;5049862;28;20328;-68
2022/11/22 05:52:42;;;;;;;29.83;13.30;;;;;;;;;;5049229;28;20316;-65
2022/11/22 05:55:08;;;;;;;26.95;12.15;;;;;;;;;;5044005;28;20024;-67
2022/11/22 05:57:33;;;;;;;34.83;13.23;;;;;;;;;;5046999;28;20032;-68
2022/11/22 05:59:58;;;;;;;39.42;13.45;;;;;;;;;;5045461;28;20036;-67
2022/11/22 06:02:24;;;;;;;36.45;14.65;;;;;;;;;;5045552;28;20017;-68
2022/11/22 06:04:49;;;;;;;36.28;13.20;;;;;;;;;;5051040;28;20027;-65
2022/11/22 06:07:14;;;;;;;42.40;15.65;;;;;;;;;;5049661;28;20529;-69
2022/11/22 06:09:39;;;;;;;35.88;15.43;;;;;;;;;;5050943;28;20109;-68
2022/11/22 06:12:05;;;;;;;37.15;15.30;;;;;;;;;;5051680;28;20048;-69
2022/11/22 06:14:30;;;;;;;34.55;14.27;;;;;;;;;;5049394;28;20059;-66
2022/11/22 06:16:55;;;;;;;41.45;15.82;;;;;;;;;;5050444;28;20029;-69
2022/11/22 06:19:20;;;;;;;32.25;13.52;;;;;;;;;;5051342;28;20043;-67
2022/11/22 06:21:45;;;;;;;32.33;13.63;;;;;;;;;;5048886;28;20100;-66
2022/11/22 06:24:11;;;;;;;30.50;12.65;;;;;;;;;;5049826;28;20104;-67
2022/11/22 06:26:36;;;;;;;33.97;13.00;;;;;;;;;;5049497;28;20045;-66
2022/11/22 06:29:02;;;;;;;39.55;13.95;;;;;;;;;;5048902;28;20028;-69
2022/11/22 06:31:27;;;;;;;42.83;15.02;;;;;;;;;;5048903;28;20536;-66
2022/11/22 06:33:53;;;;;;;57.88;25.38;;;;;;;;;;5045308;28;20029;-67
2022/11/22 06:36:26;;;;;;;39.42;14.77;;;;;;;;;;5048623;28;20526;-68
2022/11/22 06:38:51;;;;;;;34.83;14.35;;;;;;;;;;5048953;28;20021;-69
2022/11/22 06:41:18;;;;;;;32.22;13.82;;;;;;;;;;5049024;28;20021;-65
2022/11/22 06:43:44;;;;;;;35.45;15.88;;;;;;;;;;5050056;28;20450;-67
2022/11/22 06:46:10;;;;;;;32.72;15.02;;;;;;;;;;5049498;28;20081;-68
2022/11/22 06:48:36;;;;;;;41.58;16.00;;;;;;;;;;5049204;28;20092;-68
2022/11/22 06:51:03;;;;;;;38.65;16.05;;;;;;;;;;5047027;28;20017;-68
2022/11/22 06:53:29;;;;;;;38.58;16.05;;;;;;;;;;5048659;28;20033;-69
2022/11/22 06:56:02;;;;;;;36.45;15.60;;;;;;;;;;5048698;28;20040;-67
2022/11/22 06:58:28;;;;;;;37.35;15.45;;;;;;;;;;5048887;28;20028;-68
2022/11/22 07:00:58;;;;;;;33.45;13.52;;;;;;;;;;5049068;28;20033;-68
2022/11/22 07:03:23;;;;;;;35.70;17.10;;;;;;;;;;5048870;28;20029;-68
2022/11/22 07:05:49;;;;;;;30.90;13.80;;;;;;;;;;5049503;28;20031;-66
2022/11/22 07:08:14;;;;;;;34.80;14.65;;;;;;;;;;5049554;28;20021;-67
2022/11/22 07:10:39;;;;;;;30.30;14.00;;;;;;;;;;5048901;28;20429;-67
2022/11/22 07:13:05;;;;;;;35.58;14.48;;;;;;;;;;5049416;28;20394;-68
2022/11/22 07:15:30;;;;;;;30.77;12.95;;;;;;;;;;5043162;28;20492;-68
2022/11/22 07:17:55;;;;;;;40.33;14.57;;;;;;;;;;5048462;28;20155;-67
2022/11/22 07:20:20;;;;;;;34.08;14.55;;;;;;;;;;5048364;28;20031;-65
2022/11/22 07:22:46;;;;;;;42.28;17.02;;;;;;;;;;5048666;28;20071;-67
2022/11/22 07:25:11;;;;;;;32.92;14.52;;;;;;;;;;5049338;28;20648;-67
2022/11/22 07:27:36;;;;;;;40.42;15.50;;;;;;;;;;5048357;28;20442;-69
2022/11/22 07:30:02;;;;;;;32.78;13.77;;;;;;;;;;5049252;28;20013;-68
2022/11/22 07:32:27;;;;;;;34.72;14.70;;;;;;;;;;5048520;28;20047;-66
2022/11/22 07:34:52;;;;;;;30.10;13.95;;;;;;;;;;5048139;28;20031;-67
2022/11/22 07:37:17;;;;;;;28.58;13.73;;;;;;;;;;5047788;28;20061;-65
2022/11/22 07:39:42;;;;;;;37.53;14.70;;;;;;;;;;5047646;28;20106;-68
2022/11/22 07:42:08;;;;;;;45.58;15.02;;;;;;;;;;5061846;28;20090;-65
2022/11/22 07:44:33;;;;;;;32.13;14.00;;;;;;;;;;5048221;28;20047;-68
2022/11/22 07:46:58;;;;;;;37.25;16.90;;;;;;;;;;5048108;28;20045;-69
2022/11/22 07:49:23;;;;;;;36.15;15.45;;;;;;;;;;5048779;28;20056;-68
2022/11/22 07:51:48;;;;;;;32.35;13.48;;;;;;;;;;5048224;28;20103;-65
2022/11/22 07:54:14;;;;;;;36.30;14.50;;;;;;;;;;5047874;28;20024;-68
2022/11/22 07:56:39;;;;;;;33.17;14.73;;;;;;;;;;5048182;28;20033;-65
2022/11/22 07:59:04;;;;;;;35.03;14.13;;;;;;;;;;5047915;28;20056;-69
2022/11/22 08:01:29;;;;;;;36.85;16.08;;;;;;;;;;5047741;28;20102;-69
2022/11/22 08:03:55;;;;;;;38.53;15.60;;;;;;;;;;5048429;28;20100;-68
2022/11/22 08:06:20;;;;;;;34.88;14.70;;;;;;;;;;5048320;28;20459;-68
2022/11/22 08:08:45;;;;;;;33.50;14.43;;;;;;;;;;5047805;28;20438;-66
2022/11/22 08:11:11;;;;;;;33.58;14.40;;;;;;;;;;5046743;28;20033;-68
2022/11/22 08:13:36;;;;;;;33.35;12.73;;;;;;;;;;5043835;28;20009;-68
2022/11/22 08:16:03;;;;;;;27.73;12.68;;;;;;;;;;5047171;28;20070;-68
2022/11/22 08:18:28;;;;;;;29.58;13.35;;;;;;;;;;5048181;28;20025;-66
2022/11/22 08:21:00;;;;;;;31.70;13.73;;;;;;;;;;5048028;28;20032;-67
2022/11/22 08:23:25;;;;;;;29.33;12.85;;;;;;;;;;5047856;28;20131;-67
2022/11/22 08:25:51;;;;;;;28.30;13.20;;;;;;;;;;5047827;28;20045;-67
2022/11/22 08:28:16;;;;;;;26.33;13.05;;;;;;;;;;5047755;28;20025;-68
2022/11/22 08:30:41;;;;;;;31.80;13.02;;;;;;;;;;5046897;28;20005;-67
2022/11/22 08:33:06;;;;;;;29.13;13.20;;;;;;;;;;5047204;28;20372;-67
2022/11/22 08:35:32;;;;;;;26.77;12.35;;;;;;;;;;5047947;28;20036;-68
2022/11/22 08:37:57;;;;;;;28.40;14.02;;;;;;;;;;5047371;28;20017;-67
2022/11/22 08:40:23;;;;;;;31.95;12.88;;;;;;;;;;5046841;28;20097;-69
2022/11/22 08:42:48;;;;;;;28.70;12.98;;;;;;;;;;5048003;28;20021;-68
2022/11/22 08:45:13;;;;;;;32.22;12.18;;;;;;;;;;5048264;28;20023;-70
2022/11/22 08:47:39;;;;;;;28.90;12.93;;;;;;;;;;5047410;28;20109;-69
2022/11/22 08:50:04;;;;;;;28.48;12.15;;;;;;;;;;5047928;28;20079;-69
2022/11/22 08:52:30;;;;;;;33.53;13.95;;;;;;;;;;5047532;28;20072;-71
2022/11/22 08:54:55;;;;;;;30.50;12.20;;;;;;;;;;5047923;28;20150;-66
2022/11/22 08:57:20;;;;;;;23.27;11.23;;;;;;;;;;5046661;28;20025;-73
2022/11/22 08:59:45;;;;;;;24.75;12.30;;;;;;;;;;5048638;28;20021;-69
2022/11/22 09:02:10;;;;;;;31.67;11.52;;;;;;;;;;5048226;28;20021;-68
2022/11/22 09:04:36;;;;;;;31.33;13.85;;;;;;;;;;5048545;28;20092;-65
2022/11/22 09:07:01;;;;;;;28.13;12.10;;;;;;;;;;5046295;28;20625;-71
2022/11/22 09:09:26;;;;;;;27.42;12.90;;;;;;;;;;5048476;28;20028;-68
2022/11/22 09:11:52;;;;;;;27.65;12.13;;;;;;;;;;5048341;28;20024;-69
2022/11/22 09:14:17;;;;;;;24.95;11.02;;;;;;;;;;5040997;28;20637;-68
2022/11/22 09:16:42;;;;;;;28.63;12.02;;;;;;;;;;5048667;28;20020;-66
2022/11/22 09:19:08;;;;;;;22.83;10.90;;;;;;;;;;5051892;28;20047;-69
2022/11/22 09:21:33;;;;;;;31.35;11.80;;;;;;;;;;5051130;28;20040;-69
2022/11/22 09:23:59;;;;;;;20.45;10.57;;;;;;;;;;5050490;28;20033;-68
2022/11/22 09:26:24;;;;;;;23.92;10.48;;;;;;;;;;5050325;28;20071;-65
2022/11/22 09:28:49;;;;;;;24.02;10.73;;;;;;;;;;5050853;28;20430;-66
2022/11/22 09:31:17;;;;;;;21.63;10.10;;;;;;;;;;5050869;28;20108;-65
2022/11/22 09:33:44;;;;;;;25.58;10.63;;;;;;;;;;5050718;28;20033;-67
2022/11/22 09:36:13;;;;;;;28.45;11.50;;;;;;;;;;5049532;28;20029;-66
2022/11/22 09:38:39;;;;;;;23.90;11.48;;;;;;;;;;5050233;28;20024;-67
2022/11/22 09:41:13;;;;;;;20.73;10.52;;;;;;;;;;5049538;28;20036;-67
2022/11/22 09:43:44;;;;;;;23.95;10.00;;;;;;;;;;5050001;28;20017;-67
2022/11/22 09:46:28;;;;;;;19.45;9.75;;;;;;;;;;5050468;28;20104;-67
2022/11/22 09:49:05;;;;;;;18.65;9.25;;;;;;;;;;5049120;28;20559;-68
2022/11/22 09:51:38;;;;;;;23.67;9.60;;;;;;;;;;5048309;28;20109;-68
2022/11/22 09:54:11;;;;;;;17.67;8.65;;;;;;;;;;5048414;28;20037;-64
2022/11/22 09:56:37;;;;;;;28.63;10.77;;;;;;;;;;5051810;28;20089;-68
2022/11/22 09:59:14;;;;;;;25.92;10.65;;;;;;;;;;5049179;28;20443;-69
2022/11/22 10:01:46;;;;;;;23.00;10.95;;;;;;;;;;5037821;28;20279;-68
2022/11/22 10:04:14;;;;;;;22.73;10.82;;;;;;;;;;5047952;28;20032;-67
2022/11/22 10:06:41;;;;;;;20.73;10.30;;;;;;;;;;5049869;28;20396;-67
2022/11/22 10:09:13;;;;;;;22.90;9.73;;;;;;;;;;5043009;28;20037;-67
2022/11/22 10:11:47;;;;;;;23.20;9.90;;;;;;;;;;5043327;28;20123;-68
2022/11/22 10:14:15;;;;;;;22.02;9.25;;;;;;;;;;5043507;28;20052;-69
2022/11/22 10:16:44;;;;;;;21.02;9.60;;;;;;;;;;5041426;28;20072;-65
2022/11/22 10:19:12;;;;;;;23.48;8.90;;;;;;;;;;5049272;28;20530;-67
2022/11/22 10:21:37;;;;;;;22.67;7.90;;;;;;;;;;5042512;28;20043;-68
2022/11/22 10:24:03;;;;;;;22.88;8.95;;;;;;;;;;5042236;28;20390;-69
2022/11/22 10:26:31;;;;;;;18.67;9.18;;;;;;;;;;5041767;28;20028;-67
2022/11/22 10:29:03;;;;;;;21.23;9.30;;;;;;;;;;5042238;28;20186;-68
2022/11/22 10:31:31;;;;;;;17.05;8.60;;;;;;;;;;5041707;28;20033;-66
2022/11/22 10:33:57;;;;;;;21.58;8.45;;;;;;;;;;5042336;28;20052;-65
2022/11/22 10:36:22;;;;;;;17.70;7.85;;;;;;;;;;5043162;28;20041;-66
2022/11/22 10:39:06;;;;;;;15.07;7.75;;;;;;;;;;5041271;28;20115;-67
2022/11/22 10:41:45;;;;;;;15.73;8.02;;;;;;;;;;5040817;28;20017;-67
2022/11/22 10:44:19;;;;;;;26.50;8.20;;;;;;;;;;5041573;28;20025;-65
2022/11/22 10:47:03;;;;;;;17.40;7.72;;;;;;;;;;5042317;28;20025;-67
2022/11/22 10:49:47;;;;;;;24.48;9.50;;;;;;;;;;5039072;28;20029;-69
2022/11/22 10:52:21;;;;;;;19.58;9.30;;;;;;;;;;5038952;28;20036;-67
2022/11/22 10:54:46;;;;;;;22.23;9.13;;;;;;;;;;5042764;28;20073;-69
2022/11/22 10:57:30;;;;;;;19.17;8.18;;;;;;;;;;5041937;28;20090;-67
2022/11/22 10:59:58;;;;;;;25.95;8.35;;;;;;;;;;5038831;28;20033;-66
2022/11/22 11:02:42;;;;;;;17.08;7.85;;;;;;;;;;5041579;28;20126;-66
2022/11/22 11:05:11;;;;;;;14.85;7.63;;;;;;;;;;5042297;28;20108;-67
2022/11/22 11:07:37;;;;;;;17.00;8.25;;;;;;;;;;5041871;28;20513;-67
2022/11/22 11:10:03;;;;;;;15.15;7.57;;;;;;;;;;5038158;28;20036;-67
2022/11/22 11:12:37;;;;;;;22.70;7.88;;;;;;;;;;5040822;28;20131;-70
2022/11/22 11:15:04;;;;;;;18.98;8.05;;;;;;;;;;5041503;28;20029;-66
2022/11/22 11:17:32;;;;;;;20.48;8.35;;;;;;;;;;5042212;28;20400;-69
2022/11/22 11:19:59;;;;;;;15.95;8.20;;;;;;;;;;5040066;28;20578;-65
2022/11/22 11:22:25;;;;;;;18.45;7.97;;;;;;;;;;5040246;28;20122;-68
2022/11/22 11:24:50;;;;;;;17.98;7.47;;;;;;;;;;5040301;28;20656;-69
2022/11/22 11:27:17;;;;;;;15.18;7.65;;;;;;;;;;5041420;28;20040;-67
2022/11/22 11:29:47;;;;;;;14.07;6.97;;;;;;;;;;5040472;28;20091;-67
2022/11/22 11:32:18;;;;;;;18.05;7.65;;;;;;;;;;5041800;28;20367;-67
2022/11/22 11:35:04;;;;;;;23.92;9.40;;;;;;;;;;5042106;28;20075;-69
2022/11/22 11:37:36;;;;;;;17.45;8.63;;;;;;;;;;5040916;28;20048;-67
2022/11/22 11:40:23;;;;;;;21.55;7.75;;;;;;;;;;5040883;28;20486;-66
2022/11/22 11:42:48;;;;;;;13.60;7.97;;;;;;;;;;5040938;28;20039;-67
2022/11/22 11:45:22;;;;;;;17.92;8.00;;;;;;;;;;5040620;28;20029;-66
2022/11/22 11:47:47;;;;;;;25.52;8.65;;;;;;;;;;5039345;28;20545;-68
2022/11/22 11:50:23;;;;;;;15.93;7.78;;;;;;;;;;5039160;28;20013;-66
2022/11/22 11:52:55;;;;;;;18.88;8.80;;;;;;;;;;5042008;28;20052;-65
2022/11/22 11:55:21;;;;;;;20.35;9.00;;;;;;;;;;5041823;28;20052;-68
2022/11/22 11:57:46;;;;;;;17.27;8.95;;;;;;;;;;5040764;28;20394;-66
2022/11/22 12:00:20;;;;;;;18.27;9.07;;;;;;;;;;5039530;28;20024;-69
2022/11/22 12:02:46;;;;;;;20.30;8.57;;;;;;;;;;5040763;28;20120;-66
2022/11/22 12:05:11;;;;;;;17.42;8.05;;;;;;;;;;5039387;28;20662;-67
2022/11/22 12:07:43;;;;;;;16.08;7.93;;;;;;;;;;5040402;28;20036;-68
2022/11/22 12:10:23;;;;;;;18.80;7.22;;;;;;;;;;5039670;28;20033;-68
2022/11/22 12:12:52;;;;;;;18.85;9.63;;;;;;;;;;5041037;28;20054;-66
2022/11/22 12:15:21;;;;;;;17.88;8.48;;;;;;;;;;5040953;28;21151;-68
2022/11/22 12:18:06;;;;;;;26.20;9.20;;;;;;;;;;5040363;28;20037;-67
2022/11/22 12:20:40;;;;;;;28.30;9.75;;;;;;;;;;5008070;28;20037;-65
2022/11/22 12:23:15;;;;;;;27.02;9.25;;;;;;;;;;5040161;28;20107;-65
2022/11/22 12:25:41;;;;;;;24.42;9.27;;;;;;;;;;5040731;28;20044;-68
2022/11/22 12:28:11;;;;;;;26.02;9.25;;;;;;;;;;5038380;28;20518;-66
2022/11/22 12:30:38;;;;;;;24.83;10.38;;;;;;;;;;5038290;28;20032;-67
2022/11/22 12:33:05;;;;;;;17.25;8.00;;;;;;;;;;5040933;28;20086;-66
2022/11/22 12:35:36;;;;;;;18.75;8.35;;;;;;;;;;5040854;28;20036;-66
2022/11/22 12:38:02;;;;;;;16.42;7.32;;;;;;;;;;5039310;28;20483;-65
2022/11/22 12:40:40;;;;;;;15.85;8.20;;;;;;;;;;5040041;28;20036;-66
2022/11/22 12:43:29;;;;;;;20.57;7.87;;;;;;;;;;5039495;28;20648;-66
2022/11/22 12:46:00;;;;;;;19.50;8.73;;;;;;;;;;5038787;28;20134;-66
2022/11/22 12:48:33;;;;;;;24.13;10.75;;;;;;;;;;5041492;28;20029;-68
2022/11/22 12:51:02;;;;;;;23.85;10.20;;;;;;;;;;5043216;28;20028;-66
2022/11/22 12:53:29;;;;;;;21.50;9.77;;;;;;;;;;5044734;28;20136;-67
2022/11/22 12:55:54;;;;;;;21.85;9.02;;;;;;;;;;5043935;28;20048;-70
2022/11/22 12:58:34;;;;;;;24.15;8.68;;;;;;;;;;5044538;28;20652;-68
2022/11/22 13:01:08;;;;;;;18.23;8.93;;;;;;;;;;5042415;28;20052;-66
2022/11/22 13:03:45;;;;;;;18.60;8.70;;;;;;;;;;5043181;28;20123;-68
2022/11/22 13:06:11;;;;;;;19.92;9.15;;;;;;;;;;5043728;28;20017;-66
2022/11/22 13:08:42;;;;;;;23.95;10.02;;;;;;;;;;5043522;28;20049;-68
2022/11/22 13:11:11;;;;;;;27.88;10.52;;;;;;;;;;5041554;28;20075;-67
2022/11/22 13:13:47;;;;;;;31.20;13.70;;;;;;;;;;5043133;28;20120;-69
2022/11/22 13:16:13;;;;;;;31.20;13.70;;;;;;;;;;5044581;28;20099;-66
2022/11/22 13:18:58;;;;;;;23.05;9.88;;;;;;;;;;5044882;28;20033;-66
2022/11/22 13:21:38;;;;;;;24.58;11.25;;;;;;;;;;5042152;28;20096;-68
2022/11/22 13:24:06;;;;;;;23.85;9.65;;;;;;;;;;5044112;28;20047;-67
2022/11/22 13:26:50;;;;;;;22.47;9.83;;;;;;;;;;5043744;28;20482;-65
2022/11/22 13:29:20;;;;;;;23.60;9.15;;;;;;;;;;5042256;28;20801;-66
2022/11/22 13:32:05;;;;;;;27.90;9.65;;;;;;;;;;5043171;28;20129;-66
2022/11/22 13:34:31;;;;;;;22.80;9.23;;;;;;;;;;5043375;28;20035;-69
2022/11/22 13:37:03;;;;;;;19.08;8.07;;;;;;;;;;5043521;28;20124;-66
2022/11/22 13:39:28;;;;;;;24.33;8.90;;;;;;;;;;5042724;28;20052;-65
2022/11/22 13:41:57;;;;;;;23.48;9.70;;;;;;;;;;5043525;28;20589;-66
2022/11/22 13:44:22;;;;;;;28.80;9.98;;;;;;;;;;5043638;28;20795;-67
2022/11/22 13:47:14;;;;;;;16.65;8.23;;;;;;;;;;5043884;28;20040;-68
2022/11/22 13:49:40;;;;;;;23.05;8.95;;;;;;;;;;5024597;28;20048;-68
2022/11/22 13:52:11;;;;;;;17.45;8.00;;;;;;;;;;5046581;28;20039;-67
2022/11/22 13:54:36;;;;;;;18.90;7.40;;;;;;;;;;5045775;28;20025;-68
2022/11/22 13:57:01;;;;;;;27.98;8.35;;;;;;;;;;5041791;28;20032;-70
2022/11/22 13:59:27;;;;;;;37.42;14.65;;;;;;;;;;5044413;28;20056;-66
2022/11/22 14:01:54;;;;;;;19.83;9.60;;;;;;;;;;5047672;28;20589;-70
2022/11/22 14:04:25;;;;;;;20.10;9.18;;;;;;;;;;5045173;28;20086;-70
2022/11/22 14:07:03;;;;;;;21.15;8.57;;;;;;;;;;5048319;28;20017;-67
2022/11/22 14:09:28;;;;;;;21.02;9.77;;;;;;;;;;5049501;28;20017;-66
2022/11/22 14:12:02;;;;;;;25.23;10.98;;;;;;;;;;5049919;28;20021;-67
2022/11/22 14:14:41;;;;;;;28.42;12.82;;;;;;;;;;5047519;28;20021;-66
2022/11/22 14:17:16;;;;;;;28.00;11.20;;;;;;;;;;5047931;28;20498;-66
2022/11/22 14:19:50;;;;;;;29.13;12.13;;;;;;;;;;5049943;28;20671;-68
2022/11/22 14:22:17;;;;;;;30.00;11.00;;;;;;;;;;5049888;28;20091;-68
2022/11/22 14:24:48;;;;;;;24.95;10.80;;;;;;;;;;5050174;28;20465;-68
2022/11/22 14:27:32;;;;;;;23.10;11.10;;;;;;;;;;5049549;28;20426;-67
2022/11/22 14:30:11;;;;;;;26.50;10.98;;;;;;;;;;5049930;28;20009;-67
2022/11/22 14:32:36;;;;;;;;;;;;;;;;;;5045410;28;20024;-67
2022/11/22 14:35:01;;;;;;;32.47;11.35;;;;;;;;;;5049439;28;19912;-69
2022/11/22 14:37:32;;;;;;;20.98;10.30;;;;;;;;;;5049853;28;20107;-68
2022/11/22 14:40:07;;;;;;;22.27;10.65;;;;;;;;;;5049956;28;20059;-67
2022/11/22 14:42:46;;;;;;;20.92;10.50;;;;;;;;;;5049607;28;20497;-68
2022/11/22 14:45:11;;;;;;;;;;;;;;;;;;5048931;28;20025;-68